createdAt,value
2023-01-04T00:01:42.826Z,3.20
2023-01-04T00:04:28.376Z,2.88
2023-01-04T00:07:13.692Z,3.55
2023-01-04T00:09:59.009Z,3.10
2023-01-04T00:12:44.401Z,3.72
2023-01-04T00:15:29.695Z,2.97
2023-01-04T00:18:14.933Z,2.80
2023-01-04T00:21:12.365Z,3.17
2023-01-04T00:23:59.924Z,2.70
2023-01-04T00:26:45.081Z,3.15
2023-01-04T00:29:30.284Z,2.65
2023-01-04T00:32:15.552Z,3.80
2023-01-04T00:35:00.875Z,2.90
2023-01-04T00:37:51.753Z,2.78
2023-01-04T00:40:37.242Z,2.85
2023-01-04T00:43:22.583Z,3.28
2023-01-04T00:46:11.503Z,3.22
2023-01-04T00:49:00.117Z,3.17
2023-01-04T00:51:45.878Z,3.58
2023-01-04T00:54:31.288Z,3.92
2023-01-04T00:57:16.650Z,4.30
2023-01-04T01:00:01.889Z,3.75
2023-01-04T01:02:47.368Z,4.38
2023-01-04T01:05:35.242Z,5.03
2023-01-04T01:08:26.296Z,4.30
2023-01-04T01:11:11.966Z,4.38
2023-01-04T01:13:58.708Z,4.35
2023-01-04T01:16:59.422Z,4.57
2023-01-04T01:19:44.713Z,4.82
2023-01-04T01:22:30.874Z,4.28
2023-01-04T01:25:15.988Z,4.25
2023-01-04T01:28:01.452Z,4.53
2023-01-04T01:30:46.799Z,5.22
2023-01-04T01:33:32.152Z,5.45
2023-01-04T01:36:19.383Z,6.35
2023-01-04T01:39:05.850Z,7.13
2023-01-04T01:41:51.135Z,7.22
2023-01-04T01:44:46.507Z,6.15
2023-01-04T01:47:41.638Z,5.57
2023-01-04T01:50:35.056Z,6.28
2023-01-04T01:53:21.079Z,5.65
2023-01-04T01:56:07.320Z,6.07
2023-01-04T01:58:55.567Z,7.15
2023-01-04T02:01:41.178Z,6.25
2023-01-04T02:04:27.191Z,6.28
2023-01-04T02:07:17.334Z,6.30
2023-01-04T02:10:02.959Z,6.22
2023-01-04T02:12:50.555Z,7.07
2023-01-04T02:15:58.279Z,7.85
2023-01-04T02:19:13.175Z,7.07
2023-01-04T02:22:07.131Z,7.47
2023-01-04T02:25:06.044Z,7.97
2023-01-04T02:28:35.859Z,7.43
2023-01-04T02:31:40.894Z,6.90
2023-01-04T02:34:54.824Z,7.28
2023-01-04T02:38:11.112Z,6.18
2023-01-04T02:41:21.445Z,7.28
2023-01-04T02:44:47.456Z,6.47
2023-01-04T02:47:54.737Z,6.18
2023-01-04T02:50:54.047Z,6.53
2023-01-04T02:53:41.720Z,6.63
2023-01-04T02:57:04.903Z,6.80
2023-01-04T03:00:06.814Z,6.25
2023-01-04T03:03:10.776Z,6.78
2023-01-04T03:06:21.628Z,6.32
2023-01-04T03:09:19.177Z,6.07
2023-01-04T03:12:34.341Z,7.35
2023-01-04T03:15:25.997Z,7.28
2023-01-04T03:18:27.713Z,6.38
2023-01-04T03:21:14.833Z,6.47
2023-01-04T03:24:20.281Z,5.95
2023-01-04T03:27:26.856Z,6.05
2023-01-04T03:30:33.206Z,6.63
2023-01-04T03:33:37.577Z,5.95
2023-01-04T03:37:02.747Z,6.45
2023-01-04T03:40:31.694Z,6.22
2023-01-04T03:43:52.559Z,6.38
2023-01-04T03:47:12.012Z,6.93
2023-01-04T03:50:08.354Z,5.65
2023-01-04T03:52:55.384Z,6.57
2023-01-04T03:55:43.050Z,7.60
2023-01-04T03:58:28.424Z,7.00
2023-01-04T04:01:14.038Z,6.18
2023-01-04T04:04:18.016Z,6.65
2023-01-04T04:07:21.856Z,7.53
2023-01-04T04:10:07.656Z,6.93
2023-01-04T04:12:52.765Z,7.80
2023-01-04T04:15:38.108Z,6.80
2023-01-04T04:18:23.552Z,7.25
2023-01-04T04:21:08.837Z,6.60
2023-01-04T04:23:58.319Z,7.70
2023-01-04T04:26:43.721Z,7.00
2023-01-04T04:29:28.952Z,7.70
2023-01-04T04:32:14.281Z,7.05
2023-01-04T04:34:59.762Z,8.40
2023-01-04T04:37:45.108Z,8.77
2023-01-04T04:40:48.809Z,8.70
2023-01-04T04:43:34.603Z,7.35
2023-01-04T04:46:19.854Z,8.65
2023-01-04T04:49:05.672Z,8.48
2023-01-04T04:51:50.716Z,8.45
2023-01-04T04:54:36.315Z,8.68
2023-01-04T04:57:21.620Z,8.85
2023-01-04T05:00:08.288Z,7.88
2023-01-04T05:02:53.990Z,8.48
2023-01-04T05:05:39.186Z,8.50
2023-01-04T05:08:24.653Z,7.75
2023-01-04T05:11:11.799Z,7.80
2023-01-04T05:13:56.929Z,8.75
2023-01-04T05:16:42.527Z,8.70
2023-01-04T05:19:27.862Z,9.23
2023-01-04T05:22:13.156Z,8.70
2023-01-04T05:24:58.457Z,8.95
2023-01-04T05:27:44.509Z,8.68
2023-01-04T05:30:47.987Z,9.10
2023-01-04T05:33:33.738Z,7.45
2023-01-04T05:36:18.763Z,8.50
2023-01-04T05:39:04.156Z,8.98
2023-01-04T05:42:08.131Z,8.90
2023-01-04T05:44:58.581Z,7.88
2023-01-04T05:47:44.097Z,7.90
2023-01-04T05:50:29.605Z,8.77
2023-01-04T05:53:19.375Z,8.13
2023-01-04T05:56:04.763Z,8.45
2023-01-04T05:58:50.172Z,8.55
2023-01-04T06:01:35.622Z,7.40
2023-01-04T06:04:21.236Z,7.65
2023-01-04T06:07:06.527Z,8.50
2023-01-04T06:09:51.934Z,7.30
2023-01-04T06:12:37.979Z,8.27
2023-01-04T06:15:23.368Z,6.82
2023-01-04T06:18:13.105Z,8.23
2023-01-04T06:20:59.272Z,7.07
2023-01-04T06:23:44.574Z,7.18
2023-01-04T06:26:30.472Z,8.02
2023-01-04T06:29:16.147Z,6.63
2023-01-04T06:32:01.168Z,8.32
2023-01-04T06:34:46.445Z,7.43
2023-01-04T06:37:31.779Z,8.20
2023-01-04T06:40:17.279Z,8.18
2023-01-04T06:43:02.922Z,7.53
2023-01-04T06:45:48.122Z,6.72
2023-01-04T06:48:33.472Z,8.30
2023-01-04T06:51:18.924Z,6.70
2023-01-04T06:54:04.408Z,7.00
2023-01-04T06:56:49.590Z,6.95
2023-01-04T06:59:34.949Z,6.80
2023-01-04T07:02:20.273Z,6.45
2023-01-04T07:05:05.959Z,7.32
2023-01-04T07:07:51.136Z,6.90
2023-01-04T07:10:36.831Z,7.18
2023-01-04T07:13:22.057Z,6.88
2023-01-04T07:16:07.557Z,6.38
2023-01-04T07:18:52.924Z,6.18
2023-01-04T07:21:38.336Z,5.57
2023-01-04T07:24:29.782Z,6.78
2023-01-04T07:27:16.027Z,6.88
2023-01-04T07:30:01.433Z,5.97
2023-01-04T07:32:46.808Z,5.35
2023-01-04T07:35:32.135Z,7.63
2023-01-04T07:38:17.677Z,6.15
2023-01-04T07:41:03.044Z,6.22
2023-01-04T07:43:48.350Z,6.22
2023-01-04T07:46:34.750Z,6.78
2023-01-04T07:49:20.617Z,6.28
2023-01-04T07:52:06.221Z,6.00
2023-01-04T07:54:51.868Z,7.13
2023-01-04T07:57:37.394Z,6.50
2023-01-04T08:00:22.875Z,7.07
2023-01-04T08:03:08.695Z,6.13
2023-01-04T08:05:54.378Z,6.55
2023-01-04T08:08:40.319Z,6.30
2023-01-04T08:11:26.055Z,5.97
2023-01-04T08:14:11.512Z,5.95
2023-01-04T08:16:56.544Z,6.78
2023-01-04T08:19:42.025Z,5.68
2023-01-04T08:22:27.636Z,7.45
2023-01-04T08:25:13.081Z,13.45
2023-01-04T08:27:58.401Z,6.40
2023-01-04T08:30:43.821Z,6.45
2023-01-04T08:33:29.286Z,7.00
2023-01-04T08:36:29.666Z,7.20
2023-01-04T08:39:14.880Z,6.80
2023-01-04T08:42:14.486Z,7.20
2023-01-04T08:45:07.329Z,7.15
2023-01-04T08:47:52.573Z,6.30
2023-01-04T08:50:38.131Z,6.47
2023-01-04T08:53:24.366Z,5.68
2023-01-04T08:56:10.385Z,4.80
2023-01-04T08:58:55.542Z,5.22
2023-01-04T09:01:42.053Z,6.38
2023-01-04T09:04:27.740Z,7.15
2023-01-04T09:07:13.594Z,5.53
2023-01-04T09:10:00.787Z,5.50
2023-01-04T09:12:47.837Z,4.68
2023-01-04T09:15:33.697Z,6.20
2023-01-04T09:18:30.818Z,5.75
2023-01-04T09:21:21.396Z,4.22
2023-01-04T09:24:07.219Z,6.50
2023-01-04T09:26:52.299Z,5.35
2023-01-04T09:29:37.678Z,5.65
2023-01-04T09:32:23.271Z,4.63
2023-01-04T09:35:08.662Z,5.00
2023-01-04T09:37:54.769Z,5.30
2023-01-04T09:41:16.509Z,5.40
2023-01-04T09:44:12.525Z,5.35
2023-01-04T09:47:19.619Z,5.40
2023-01-04T09:50:13.792Z,4.80
2023-01-04T09:53:21.377Z,5.35
2023-01-04T09:56:15.364Z,4.68
2023-01-04T09:59:05.671Z,6.18
2023-01-04T10:02:03.752Z,5.13
2023-01-04T10:04:51.378Z,4.75
2023-01-04T10:07:36.672Z,5.55
2023-01-04T10:10:35.597Z,4.85
2023-01-04T10:13:41.958Z,5.20
2023-01-04T10:17:11.957Z,5.05
2023-01-04T10:23:43.423Z,4.50
2023-01-04T10:26:49.547Z,4.85
2023-01-04T10:29:49.787Z,4.95
2023-01-04T10:32:43.008Z,4.75
2023-01-04T10:35:28.400Z,4.82
2023-01-04T10:38:22.798Z,4.50
2023-01-04T10:41:16.659Z,4.20
2023-01-04T10:44:17.511Z,5.50
2023-01-04T10:47:13.279Z,5.00
2023-01-04T10:50:30.843Z,4.57
2023-01-04T10:53:52.876Z,4.43
2023-01-04T10:56:52.391Z,4.45
2023-01-04T10:59:45.959Z,4.07
2023-01-04T11:02:41.904Z,4.15
2023-01-04T11:06:04.056Z,3.88
2023-01-04T11:08:58.427Z,4.25
2023-01-04T11:11:45.693Z,3.28
2023-01-04T11:14:37.001Z,3.25
2023-01-04T11:17:24.915Z,2.42
2023-01-04T11:20:10.631Z,3.22
2023-01-04T11:23:02.169Z,3.00
2023-01-04T11:25:56.461Z,2.40
2023-01-04T11:28:56.405Z,2.35
2023-01-04T11:31:49.481Z,2.00
2023-01-04T11:34:53.553Z,2.35
2023-01-04T11:37:40.984Z,2.35
2023-01-04T11:40:28.074Z,2.28
2023-01-04T11:43:18.425Z,2.13
2023-01-04T11:46:17.191Z,1.92
2023-01-04T11:49:02.214Z,1.70
2023-01-04T11:51:47.730Z,2.10
2023-01-04T11:54:32.841Z,2.55
2023-01-04T11:57:20.243Z,2.17
2023-01-04T12:00:16.061Z,2.45
2023-01-04T12:03:16.476Z,2.15
2023-01-04T12:06:02.597Z,2.05
2023-01-04T12:08:48.660Z,2.30
2023-01-04T12:11:41.481Z,2.47
2023-01-04T12:14:32.324Z,2.17
2023-01-04T12:17:31.756Z,1.70
2023-01-04T12:20:20.238Z,2.17
2023-01-04T12:23:05.768Z,2.40
2023-01-04T12:25:52.279Z,2.17
2023-01-04T12:28:44.279Z,1.80
2023-01-04T12:31:32.312Z,1.95
2023-01-04T12:34:25.843Z,1.50
2023-01-04T12:37:32.054Z,1.65
2023-01-04T12:40:45.583Z,1.52
2023-01-04T12:43:43.079Z,2.00
2023-01-04T12:46:50.345Z,2.28
2023-01-04T12:49:41.612Z,1.52
2023-01-04T12:52:34.755Z,2.35
2023-01-04T12:55:32.646Z,1.83
2023-01-04T13:01:36.400Z,1.50
2023-01-04T13:04:30.034Z,1.63
2023-01-04T13:07:22.159Z,1.65
2023-01-04T13:10:42.174Z,1.75
2023-01-04T13:13:38.428Z,1.25
2023-01-04T13:17:00.817Z,1.60
2023-01-04T13:19:47.038Z,1.77
2023-01-04T13:22:33.980Z,1.70
2023-01-04T13:25:20.881Z,1.90
2023-01-04T13:28:06.339Z,1.50
2023-01-04T13:31:00.254Z,1.33
2023-01-04T13:33:46.786Z,1.33
2023-01-04T13:36:32.075Z,1.52
2023-01-04T13:39:19.108Z,1.42
2023-01-04T13:42:05.811Z,2.10
2023-01-04T13:45:19.614Z,2.25
2023-01-04T13:48:14.742Z,4.78
2023-01-04T13:51:36.901Z,5.13
2023-01-04T13:54:23.753Z,3.50
2023-01-04T13:57:09.652Z,3.72
2023-01-04T13:59:55.066Z,3.25
2023-01-04T14:02:40.747Z,1.70
2023-01-04T14:05:26.188Z,1.45
2023-01-04T14:08:12.092Z,1.58
2023-01-04T14:10:57.797Z,2.05
2023-01-04T14:13:47.792Z,1.52
2023-01-04T14:16:33.151Z,1.63
2023-01-04T14:19:45.192Z,1.50
2023-01-04T14:22:35.627Z,1.90
2023-01-04T14:25:40.773Z,1.10
2023-01-04T14:28:33.681Z,1.30
2023-01-04T14:31:21.229Z,1.98
2023-01-04T14:34:07.522Z,1.13
2023-01-04T14:37:03.709Z,1.45
2023-01-04T14:39:48.981Z,0.88
2023-01-04T14:42:34.423Z,1.15
2023-01-04T14:45:19.681Z,1.08
2023-01-04T14:48:05.203Z,1.50
2023-01-04T14:50:51.094Z,1.20
2023-01-04T14:53:36.471Z,1.65
2023-01-04T14:56:22.045Z,1.33
2023-01-04T14:59:08.235Z,1.27
2023-01-04T15:01:55.462Z,1.40
2023-01-04T15:04:40.808Z,1.67
2023-01-04T15:07:39.703Z,2.17
2023-01-04T15:10:27.111Z,1.88
2023-01-04T15:13:12.503Z,1.30
2023-01-04T15:15:58.020Z,1.60
2023-01-04T15:18:44.647Z,1.65
2023-01-04T15:21:31.850Z,1.77
2023-01-04T15:24:18.159Z,1.70
2023-01-04T15:27:03.618Z,1.58
2023-01-04T15:29:48.789Z,1.77
2023-01-04T15:32:35.247Z,2.03
2023-01-04T15:35:20.543Z,2.15
2023-01-04T15:38:06.851Z,1.50
2023-01-04T15:41:00.368Z,2.65
2023-01-04T15:43:45.459Z,2.05
2023-01-04T15:46:31.005Z,1.95
2023-01-04T15:49:17.871Z,1.85
2023-01-04T15:52:03.595Z,1.90
2023-01-04T15:54:49.049Z,1.80
2023-01-04T15:57:38.666Z,1.70
2023-01-04T16:00:27.685Z,1.67
2023-01-04T16:03:12.768Z,1.50
2023-01-04T16:05:58.061Z,2.00
2023-01-04T16:08:44.194Z,1.80
2023-01-04T16:11:29.938Z,2.70
2023-01-04T16:14:15.061Z,2.55
2023-01-04T16:17:00.265Z,2.58
2023-01-04T16:19:45.793Z,2.63
2023-01-04T16:22:31.129Z,2.05
2023-01-04T16:25:16.517Z,2.33
2023-01-04T16:28:01.962Z,2.05
2023-01-04T16:30:55.850Z,1.90
2023-01-04T16:33:42.338Z,1.48
2023-01-04T16:36:27.872Z,2.13
2023-01-04T16:39:13.255Z,1.20
2023-01-04T16:41:58.433Z,1.98
2023-01-04T16:44:43.762Z,2.28
2023-01-04T16:47:29.210Z,1.80
2023-01-04T16:50:14.661Z,1.20
2023-01-04T16:53:00.113Z,1.52
2023-01-04T16:55:45.504Z,1.00
2023-01-04T16:58:31.291Z,1.02
2023-01-04T17:01:21.078Z,1.45
2023-01-04T17:04:10.270Z,1.52
2023-01-04T17:06:58.119Z,1.80
2023-01-04T17:09:43.171Z,1.58
2023-01-04T17:15:49.473Z,1.20
2023-01-04T17:18:37.513Z,1.77
2023-01-04T17:21:33.667Z,1.00
2023-01-04T17:24:20.348Z,0.80
2023-01-04T17:27:05.702Z,1.13
2023-01-04T17:29:51.152Z,1.27
2023-01-04T17:32:36.540Z,1.10
2023-01-04T17:35:21.956Z,1.27
2023-01-04T17:38:07.833Z,1.30
2023-01-04T17:40:53.332Z,1.20
2023-01-04T17:43:40.126Z,1.40
2023-01-04T17:46:27.167Z,1.27
2023-01-04T17:49:32.072Z,1.30
2023-01-04T17:52:24.463Z,1.17
2023-01-04T17:55:11.404Z,1.40
2023-01-04T17:57:57.090Z,1.20
2023-01-04T18:00:42.537Z,1.40
2023-01-04T18:03:27.867Z,1.33
2023-01-04T18:06:25.248Z,2.35
2023-01-04T18:09:13.333Z,1.08
2023-01-04T18:12:00.658Z,1.50
2023-01-04T18:14:46.324Z,1.48
2023-01-04T18:17:31.895Z,1.55
2023-01-04T18:20:24.620Z,2.03
2023-01-04T18:23:15.024Z,1.30
2023-01-04T18:26:10.120Z,1.25
2023-01-04T18:28:55.242Z,1.42
2023-01-04T18:31:40.887Z,1.48
2023-01-04T18:34:26.731Z,1.00
2023-01-04T18:37:12.313Z,1.35
2023-01-04T18:39:57.606Z,2.03
2023-01-04T18:42:47.244Z,1.67
2023-01-04T18:45:32.482Z,1.70
2023-01-04T18:48:17.836Z,1.60
2023-01-04T18:51:05.515Z,1.35
2023-01-04T18:53:51.318Z,1.40
2023-01-04T18:56:36.896Z,1.30
2023-01-04T18:59:21.976Z,1.40
2023-01-04T19:02:07.677Z,1.60
2023-01-04T19:04:52.823Z,1.98
2023-01-04T19:07:39.293Z,2.13
2023-01-04T19:10:24.733Z,1.75
2023-01-04T19:13:09.954Z,2.55
2023-01-04T19:15:55.641Z,1.95
2023-01-04T19:18:41.427Z,1.88
2023-01-04T19:21:27.517Z,2.00
2023-01-04T19:24:12.997Z,2.47
2023-01-04T19:27:02.883Z,2.47
2023-01-04T19:29:48.296Z,2.55
2023-01-04T19:32:34.176Z,2.25
2023-01-04T19:35:19.692Z,2.15
2023-01-04T19:38:05.123Z,2.20
2023-01-04T19:41:00.035Z,2.90
2023-01-04T19:43:45.185Z,2.90
2023-01-04T19:46:31.902Z,3.63
2023-01-04T19:49:17.356Z,2.03
2023-01-04T19:52:02.280Z,2.30
2023-01-04T19:54:47.749Z,2.85
2023-01-04T19:57:33.474Z,2.30
2023-01-04T20:00:18.753Z,2.25
2023-01-04T20:03:04.321Z,2.63
2023-01-04T20:05:50.101Z,2.20
2023-01-04T20:08:35.475Z,2.67
2023-01-04T20:11:20.500Z,2.45
2023-01-04T20:14:05.866Z,1.98
2023-01-04T20:16:51.391Z,2.17
2023-01-04T20:19:36.587Z,2.28
2023-01-04T20:22:21.964Z,2.20
2023-01-04T20:25:07.756Z,2.40
2023-01-04T20:27:52.981Z,2.60
2023-01-04T20:30:38.773Z,1.90
2023-01-04T20:33:24.219Z,2.40
2023-01-04T20:36:14.721Z,2.33
2023-01-04T20:39:02.137Z,2.55
2023-01-04T20:42:05.976Z,2.33
2023-01-04T20:44:51.392Z,1.90
2023-01-04T20:47:36.813Z,1.95
2023-01-04T20:50:21.972Z,2.05
2023-01-04T20:53:07.321Z,1.83
2023-01-04T20:55:52.782Z,2.17
2023-01-04T20:58:38.634Z,2.05
2023-01-04T21:01:25.323Z,1.67
2023-01-04T21:04:10.685Z,1.85
2023-01-04T21:06:56.123Z,1.70
2023-01-04T21:09:41.576Z,1.60
2023-01-04T21:12:26.959Z,1.70
2023-01-04T21:15:12.378Z,1.80
2023-01-04T21:17:57.754Z,1.52
2023-01-04T21:20:44.135Z,1.58
2023-01-04T21:23:29.437Z,1.40
2023-01-04T21:26:17.272Z,1.80
2023-01-04T21:29:02.352Z,1.92
2023-01-04T21:31:47.761Z,1.60
2023-01-04T21:34:33.495Z,1.85
2023-01-04T21:37:18.636Z,1.23
2023-01-04T21:40:04.432Z,1.30
2023-01-04T21:42:49.546Z,1.30
2023-01-04T21:45:39.446Z,1.05
2023-01-04T21:48:24.553Z,1.13
2023-01-04T21:51:10.873Z,1.58
2023-01-04T21:53:57.128Z,1.33
2023-01-04T21:56:42.614Z,1.02
2023-01-04T21:59:27.936Z,1.20
2023-01-04T22:02:18.037Z,1.20
2023-01-04T22:05:03.626Z,1.13
2023-01-04T22:07:49.096Z,1.17
2023-01-04T22:10:34.460Z,1.17
2023-01-04T22:13:20.205Z,1.42
2023-01-04T22:16:06.880Z,1.10
2023-01-04T22:18:52.367Z,1.00
2023-01-04T22:21:38.052Z,0.98
2023-01-04T22:24:23.468Z,0.90
2023-01-04T22:27:08.670Z,0.93
2023-01-04T22:29:54.044Z,1.10
2023-01-04T22:32:39.378Z,0.93
2023-01-04T22:35:24.793Z,1.20
2023-01-04T22:38:09.983Z,1.58
2023-01-04T22:40:55.324Z,1.20
2023-01-04T22:43:40.592Z,1.33
2023-01-04T22:46:27.771Z,1.00
2023-01-04T22:49:13.235Z,1.00
2023-01-04T22:51:58.762Z,1.00
2023-01-04T22:54:43.875Z,0.88
2023-01-04T22:57:29.159Z,0.82
2023-01-04T23:00:15.740Z,0.82
2023-01-04T23:03:02.423Z,1.00
2023-01-04T23:05:47.887Z,1.00
2023-01-04T23:08:34.214Z,0.90
2023-01-04T23:11:19.551Z,0.85
2023-01-04T23:14:07.033Z,0.90
2023-01-04T23:16:52.472Z,0.88
2023-01-04T23:19:37.603Z,0.82
2023-01-04T23:22:25.278Z,0.98
2023-01-04T23:25:11.158Z,0.73
2023-01-04T23:27:59.304Z,0.77
2023-01-04T23:30:44.438Z,0.70
2023-01-04T23:33:35.705Z,1.00
2023-01-04T23:36:25.837Z,0.95
2023-01-04T23:39:14.454Z,0.82
2023-01-04T23:41:59.795Z,0.73
2023-01-04T23:44:45.329Z,0.90
2023-01-04T23:47:31.683Z,0.60
2023-01-04T23:50:18.071Z,0.65
2023-01-04T23:53:05.016Z,0.90
2023-01-04T23:56:04.081Z,0.85
2023-01-04T23:58:49.246Z,1.10
